Time;durP1;ratioP1;P1;durP2;ratioP2;P2;SDS_P1;SDS_P2;PMS_P1;PMS_P2;Temp;Humidity;BMP_temperature;BMP_pressure;BME280_temperature;BME280_humidity;BME280_pressure;Samples;Min_cycle;Max_cycle;Signal;HPM_P1;HPM_P2
2021/05/02 00:01:05;;;;;;;24.25;16.17;;;8.50;99.90;;;;;;5088473;28;20044;-78
2021/05/02 00:03:33;;;;;;;25.20;17.02;;;8.50;99.90;;;;;;5088626;28;20079;-79
2021/05/02 00:06:01;;;;;;;25.40;16.95;;;8.50;99.90;;;;;;5088858;28;20052;-80
2021/05/02 00:08:28;;;;;;;27.27;18.52;;;8.50;99.90;;;;;;5088967;28;20143;-79
2021/05/02 00:10:54;;;;;;;27.25;18.83;;;8.50;99.90;;;;;;5088691;28;20075;-79
2021/05/02 00:13:21;;;;;;;25.85;18.38;;;8.50;99.90;;;;;;5088336;28;20080;-79
2021/05/02 00:15:48;;;;;;;25.98;17.98;;;8.60;99.90;;;;;;5088110;28;20083;-79
2021/05/02 00:18:15;;;;;;;25.85;17.13;;;8.50;99.90;;;;;;5088355;28;20074;-79
2021/05/02 00:20:42;;;;;;;24.08;16.75;;;8.50;99.90;;;;;;5088443;28;20143;-79
2021/05/02 00:23:10;;;;;;;26.33;17.15;;;8.50;99.90;;;;;;5091795;28;20061;-79
2021/05/02 00:25:37;;;;;;;25.52;17.73;;;8.40;99.90;;;;;;5092629;28;20083;-78
2021/05/02 00:28:08;;;;;;;24.83;16.98;;;8.50;99.90;;;;;;5092602;28;20095;-79
2021/05/02 00:30:35;;;;;;;26.63;17.58;;;8.60;99.90;;;;;;5091323;28;20138;-79
2021/05/02 00:33:02;;;;;;;28.48;18.48;;;8.50;99.90;;;;;;5092159;28;20485;-78
2021/05/02 00:35:30;;;;;;;27.00;17.70;;;8.30;99.90;;;;;;5092070;28;20136;-80
2021/05/02 00:37:57;;;;;;;26.52;17.05;;;8.50;99.90;;;;;;5092436;28;20568;-80
2021/05/02 00:40:37;;;;;;;27.13;17.75;;;8.50;99.90;;;;;;5091976;28;20559;-79
2021/05/02 00:43:08;;;;;;;26.67;17.20;;;8.50;99.90;;;;;;5091735;28;20147;-79
2021/05/02 00:45:45;;;;;;;25.02;16.85;;;8.50;99.90;;;;;;5092006;28;20052;-79
2021/05/02 00:48:18;;;;;;;26.35;18.13;;;8.50;99.90;;;;;;5091832;28;20097;-79
2021/05/02 00:50:54;;;;;;;27.30;18.17;;;8.60;99.90;;;;;;5091710;28;20119;-79
2021/05/02 00:53:35;;;;;;;27.40;18.77;;;8.40;99.90;;;;;;5091677;28;20432;-79
2021/05/02 00:56:16;;;;;;;30.27;19.13;;;8.40;99.90;;;;;;5091757;28;20064;-79
2021/05/02 00:58:52;;;;;;;24.05;17.25;;;8.30;99.90;;;;;;5091820;28;20101;-78
2021/05/02 01:01:21;;;;;;;24.92;16.58;;;8.30;99.90;;;;;;5091590;28;20075;-78
2021/05/02 01:03:49;;;;;;;24.77;17.73;;;8.30;99.90;;;;;;5091806;28;20075;-79
2021/05/02 01:06:22;;;;;;;24.25;17.17;;;8.30;99.90;;;;;;5091620;28;20047;-78
2021/05/02 01:08:51;;;;;;;24.90;16.80;;;8.30;99.90;;;;;;5091397;28;20067;-78
2021/05/02 01:11:19;;;;;;;23.33;16.27;;;8.30;99.90;;;;;;5091588;28;20084;-78
2021/05/02 01:13:54;;;;;;;25.08;17.20;;;8.30;99.90;;;;;;5091242;28;20090;-79
2021/05/02 01:16:25;;;;;;;24.30;17.23;;;8.30;99.90;;;;;;5090761;28;20386;-78
2021/05/02 01:18:54;;;;;;;24.73;17.80;;;8.30;99.90;;;;;;5090687;28;20520;-78
2021/05/02 01:21:30;;;;;;;22.77;16.08;;;8.30;99.90;;;;;;5091025;28;20549;-79
2021/05/02 01:23:59;;;;;;;28.52;18.17;;;8.20;99.90;;;;;;5090940;28;20056;-78
2021/05/02 01:26:26;;;;;;;21.35;15.57;;;8.20;99.90;;;;;;5091281;28;20491;-78
2021/05/02 01:28:56;;;;;;;24.20;16.48;;;8.20;99.90;;;;;;5090685;28;20501;-78
2021/05/02 01:31:27;;;;;;;22.63;15.35;;;8.30;99.90;;;;;;5090832;28;20498;-78
2021/05/02 01:33:54;;;;;;;21.15;14.35;;;8.20;99.90;;;;;;5089424;28;20048;-79
2021/05/02 01:36:22;;;;;;;24.27;16.48;;;8.30;99.90;;;;;;5092273;28;20075;-80
2021/05/02 01:38:50;;;;;;;22.65;15.48;;;8.30;99.90;;;;;;5094567;28;20059;-79
2021/05/02 01:41:19;;;;;;;23.17;15.80;;;8.30;99.90;;;;;;5094675;28;20452;-77
2021/05/02 01:43:46;;;;;;;20.85;14.82;;;8.30;99.90;;;;;;5094590;28;20073;-78
2021/05/02 01:46:18;;;;;;;24.38;17.05;;;8.30;99.90;;;;;;5094455;28;20083;-78
2021/05/02 01:48:46;;;;;;;23.38;16.10;;;8.30;99.90;;;;;;5094086;28;20127;-77
2021/05/02 01:51:15;;;;;;;23.15;16.08;;;8.30;99.90;;;;;;5094514;28;20084;-78
2021/05/02 01:53:42;;;;;;;22.27;15.85;;;8.30;99.90;;;;;;5094509;28;20383;-78
2021/05/02 01:56:12;;;;;;;25.02;17.60;;;8.30;99.90;;;;;;5094209;28;20067;-78
2021/05/02 01:58:41;;;;;;;24.00;16.95;;;8.30;99.90;;;;;;5094574;28;20117;-79
2021/05/02 02:01:11;;;;;;;24.02;17.00;;;8.20;99.90;;;;;;5092649;28;20048;-80
2021/05/02 02:03:38;;;;;;;26.63;18.50;;;8.20;99.90;;;;;;5092912;28;20087;-79
2021/05/02 02:06:05;;;;;;;25.55;16.80;;;8.20;99.90;;;;;;5094022;28;20476;-78
2021/05/02 02:08:33;;;;;;;28.02;18.33;;;8.20;99.90;;;;;;5094342;28;20083;-79
2021/05/02 02:11:00;;;;;;;24.77;17.63;;;8.10;99.90;;;;;;5093911;28;20083;-80
2021/05/02 02:13:27;;;;;;;25.02;17.75;;;8.10;99.90;;;;;;5094482;28;20080;-81
2021/05/02 02:15:55;;;;;;;25.27;18.20;;;8.10;99.90;;;;;;5092860;28;20098;-79
2021/05/02 02:18:22;;;;;;;26.10;18.67;;;8.10;99.90;;;;;;5094262;28;20498;-79
2021/05/02 02:20:54;;;;;;;25.92;18.23;;;8.00;99.90;;;;;;5093869;28;20083;-78
2021/05/02 02:23:25;;;;;;;25.00;17.85;;;7.90;99.90;;;;;;5094160;28;20043;-79
2021/05/02 02:25:54;;;;;;;27.75;18.83;;;7.90;99.90;;;;;;5094166;28;20104;-79
2021/05/02 02:28:22;;;;;;;25.42;17.92;;;7.90;99.90;;;;;;5093458;28;20077;-78
2021/05/02 02:30:52;;;;;;;24.70;17.15;;;7.90;99.90;;;;;;5093683;28;20055;-79
2021/05/02 02:33:23;;;;;;;24.45;16.77;;;7.80;99.90;;;;;;5093496;28;20155;-79
2021/05/02 02:35:52;;;;;;;23.95;17.52;;;7.90;99.90;;;;;;5094058;28;20470;-79
2021/05/02 02:38:22;;;;;;;25.55;17.13;;;8.00;99.90;;;;;;5093501;28;20083;-80
2021/05/02 02:40:52;;;;;;;25.55;16.98;;;7.90;99.90;;;;;;5093250;28;20083;-80
2021/05/02 02:43:24;;;;;;;28.13;18.67;;;7.80;99.90;;;;;;5093006;28;20536;-78
2021/05/02 02:45:54;;;;;;;25.75;17.92;;;7.80;99.90;;;;;;5092962;28;20098;-80
2021/05/02 02:48:26;;;;;;;27.75;17.95;;;7.90;99.90;;;;;;5093621;28;20078;-79
2021/05/02 02:50:56;;;;;;;26.65;18.15;;;7.70;99.90;;;;;;5093545;28;20109;-78
2021/05/02 02:53:27;;;;;;;26.92;18.52;;;7.70;99.90;;;;;;5093479;28;20090;-79
2021/05/02 02:56:02;;;;;;;24.20;17.80;;;7.60;99.90;;;;;;5093233;28;20051;-78
2021/05/02 02:58:35;;;;;;;26.45;17.73;;;7.70;99.90;;;;;;5093557;28;20085;-79
2021/05/02 03:01:05;;;;;;;27.58;19.70;;;7.60;99.90;;;;;;5093251;28;20052;-80
2021/05/02 03:03:34;;;;;;;24.85;17.95;;;7.60;99.90;;;;;;5090626;28;20139;-79
2021/05/02 03:06:01;;;;;;;26.27;18.42;;;7.50;99.90;;;;;;5090634;28;20044;-79
2021/05/02 03:08:31;;;;;;;26.73;18.23;;;7.50;99.90;;;;;;5089428;28;20048;-80
2021/05/02 03:10:58;;;;;;;27.45;18.08;;;7.50;99.90;;;;;;5089364;28;20055;-79
2021/05/02 03:13:25;;;;;;;26.50;18.20;;;7.50;99.90;;;;;;5089829;28;20048;-79
2021/05/02 03:15:52;;;;;;;26.33;19.17;;;7.50;99.90;;;;;;5089536;28;20075;-78
2021/05/02 03:18:24;;;;;;;25.88;18.90;;;7.50;99.90;;;;;;5089580;28;20044;-79
2021/05/02 03:21:02;;;;;;;25.27;18.00;;;7.50;99.90;;;;;;5089546;28;20052;-78
2021/05/02 03:23:34;;;;;;;27.73;18.85;;;7.50;99.90;;;;;;5089610;28;20079;-79
2021/05/02 03:26:04;;;;;;;24.35;17.05;;;7.50;99.90;;;;;;5084740;28;20355;-79
2021/05/02 03:28:36;;;;;;;23.90;16.88;;;7.50;99.90;;;;;;5084446;28;20087;-78
2021/05/02 03:31:08;;;;;;;25.13;17.98;;;7.50;99.90;;;;;;5089342;28;20474;-78
2021/05/02 03:33:40;;;;;;;24.55;17.77;;;7.50;99.90;;;;;;5089470;28;20097;-78
2021/05/02 03:36:12;;;;;;;26.80;18.98;;;7.50;99.90;;;;;;5089570;28;20489;-78
2021/05/02 03:38:48;;;;;;;25.92;17.42;;;7.40;99.90;;;;;;5089590;28;20083;-79
2021/05/02 03:41:16;;;;;;;22.48;15.73;;;7.40;99.90;;;;;;5088026;28;20047;-79
2021/05/02 03:43:43;;;;;;;23.63;16.67;;;7.50;99.90;;;;;;5088056;28;20563;-80
2021/05/02 03:46:23;;;;;;;26.02;18.48;;;7.50;99.90;;;;;;5073694;28;20076;-79
2021/05/02 03:48:54;;;;;;;24.45;17.65;;;7.50;99.90;;;;;;5089477;28;20888;-79
2021/05/02 03:51:22;;;;;;;25.00;16.75;;;7.40;99.90;;;;;;5089631;28;20076;-79
2021/05/02 03:53:49;;;;;;;24.98;18.10;;;7.50;99.90;;;;;;5089324;28;20579;-80
2021/05/02 03:56:40;;;;;;;25.15;17.42;;;7.60;99.90;;;;;;5089857;28;20064;-80
2021/05/02 03:59:10;;;;;;;23.67;16.00;;;7.60;99.90;;;;;;5093296;28;20134;-79
2021/05/02 04:01:40;;;;;;;23.80;16.42;;;7.50;99.90;;;;;;5094690;28;20078;-79
2021/05/02 04:04:07;;;;;;;23.88;16.80;;;7.60;99.90;;;;;;5096685;28;20134;-79
2021/05/02 04:06:35;;;;;;;24.38;17.00;;;7.60;99.90;;;;;;5096591;28;20083;-79
2021/05/02 04:09:05;;;;;;;21.33;15.73;;;7.60;99.90;;;;;;5095551;28;20052;-79
2021/05/02 04:11:32;;;;;;;25.20;17.50;;;7.60;99.90;;;;;;5096098;28;20066;-79
2021/05/02 04:14:01;;;;;;;24.85;17.52;;;7.60;99.90;;;;;;5096488;28;20130;-78
2021/05/02 04:16:29;;;;;;;24.02;17.50;;;7.50;99.90;;;;;;5096166;28;20058;-77
2021/05/02 04:18:56;;;;;;;21.52;16.20;;;7.50;99.90;;;;;;5096142;28;20075;-78
2021/05/02 04:21:23;;;;;;;23.80;16.38;;;7.50;99.90;;;;;;5094092;28;20555;-79
2021/05/02 04:23:51;;;;;;;25.33;17.52;;;7.60;99.90;;;;;;5095699;28;20079;-78
2021/05/02 04:26:18;;;;;;;24.83;17.77;;;7.60;99.90;;;;;;5095937;28;20067;-79
2021/05/02 04:28:45;;;;;;;23.02;16.70;;;7.60;99.90;;;;;;5091558;28;20076;-79
2021/05/02 04:31:11;;;;;;;22.02;16.60;;;7.50;99.90;;;;;;5088029;28;20504;-78
2021/05/02 04:33:38;;;;;;;21.05;16.05;;;7.50;99.90;;;;;;5095970;28;20493;-80
2021/05/02 04:36:06;;;;;;;22.58;17.08;;;7.50;99.90;;;;;;5095995;28;20374;-81
2021/05/02 04:38:34;;;;;;;21.67;16.05;;;7.60;99.90;;;;;;5096171;28;20095;-79
2021/05/02 04:41:02;;;;;;;21.45;14.25;;;7.60;99.90;;;;;;5095864;28;20150;-80
2021/05/02 04:43:29;;;;;;;21.52;15.27;;;7.60;99.90;;;;;;5091719;28;20076;-79
2021/05/02 04:45:55;;;;;;;19.73;14.10;;;7.70;99.90;;;;;;5094174;28;20502;-79
2021/05/02 04:48:22;;;;;;;18.95;14.70;;;7.60;99.90;;;;;;5096020;28;20076;-81
2021/05/02 04:50:49;;;;;;;20.77;16.02;;;7.60;99.90;;;;;;5096394;28;20126;-79
2021/05/02 04:53:15;;;;;;;20.42;14.70;;;7.80;99.90;;;;;;5096108;28;20048;-80
2021/05/02 04:55:42;;;;;;;19.88;14.73;;;7.90;99.90;;;;;;5095622;28;20044;-80
2021/05/02 04:58:10;;;;;;;20.50;14.55;;;7.90;99.90;;;;;;5095892;28;20079;-80
2021/05/02 05:00:37;;;;;;;19.45;14.15;;;7.80;99.90;;;;;;5095829;28;20374;-79
2021/05/02 05:03:04;;;;;;;20.58;14.45;;;7.90;99.90;;;;;;5095768;28;20056;-79
2021/05/02 05:05:31;;;;;;;21.00;14.82;;;8.00;99.90;;;;;;5095682;28;20115;-79
2021/05/02 05:07:57;;;;;;;20.40;14.73;;;8.10;99.90;;;;;;5094652;28;20079;-79
2021/05/02 05:10:24;;;;;;;21.10;14.70;;;8.20;99.90;;;;;;5095512;28;20083;-80
2021/05/02 05:12:51;;;;;;;20.23;14.07;;;8.10;99.90;;;;;;5095662;28;20044;-82
2021/05/02 05:15:19;;;;;;;21.27;15.73;;;8.20;99.90;;;;;;5095936;28;20084;-79
2021/05/02 05:17:45;;;;;;;18.25;14.82;;;8.10;99.90;;;;;;5095297;28;20461;-79
2021/05/02 05:20:13;;;;;;;20.27;15.13;;;8.20;99.90;;;;;;5095070;28;20097;-79
2021/05/02 05:22:40;;;;;;;19.98;15.65;;;8.10;99.90;;;;;;5095165;28;20075;-80
2021/05/02 05:25:08;;;;;;;21.38;16.77;;;8.20;99.90;;;;;;5093738;28;20138;-79
2021/05/02 05:27:35;;;;;;;21.52;16.05;;;8.10;99.90;;;;;;5080906;28;20082;-80
2021/05/02 05:30:02;;;;;;;24.05;16.90;;;8.00;99.90;;;;;;5078587;28;20084;-79
2021/05/02 05:32:29;;;;;;;21.50;16.20;;;8.10;99.90;;;;;;5075638;28;20127;-80
2021/05/02 05:34:56;;;;;;;22.90;15.77;;;8.00;99.90;;;;;;5076851;28;20147;-81
2021/05/02 05:37:22;;;;;;;19.77;14.88;;;8.00;99.90;;;;;;5082591;28;20130;-79
2021/05/02 05:39:50;;;;;;;20.77;14.10;;;8.00;99.90;;;;;;5087695;28;20083;-80
2021/05/02 05:42:17;;;;;;;21.73;16.27;;;7.90;99.90;;;;;;5089320;28;20046;-79
2021/05/02 05:44:44;;;;;;;25.10;17.38;;;8.00;99.90;;;;;;5086120;28;20093;-80
2021/05/02 05:47:12;;;;;;;20.73;16.05;;;7.90;99.90;;;;;;5074922;28;20136;-79
2021/05/02 05:49:40;;;;;;;23.77;17.35;;;7.90;99.90;;;;;;5074203;28;20439;-79
2021/05/02 05:52:08;;;;;;;22.38;16.48;;;7.90;99.90;;;;;;5074882;28;20052;-79
2021/05/02 05:54:36;;;;;;;21.08;15.98;;;7.90;99.90;;;;;;5074783;28;20055;-79
2021/05/02 05:57:04;;;;;;;20.70;15.70;;;7.90;99.90;;;;;;5073312;28;20098;-79
2021/05/02 05:59:31;;;;;;;22.08;15.65;;;7.90;99.90;;;;;;5074618;28;20048;-78
2021/05/02 06:01:57;;;;;;;19.38;15.57;;;8.00;99.90;;;;;;5083329;28;20040;-79
2021/05/02 06:04:24;;;;;;;21.88;16.23;;;8.00;99.90;;;;;;5093232;28;20051;-79
2021/05/02 06:06:52;;;;;;;22.98;17.20;;;8.10;99.90;;;;;;5074259;28;20155;-79
2021/05/02 06:09:19;;;;;;;21.75;16.80;;;8.00;99.90;;;;;;5078786;28;20067;-78
2021/05/02 06:11:47;;;;;;;21.15;16.00;;;8.00;99.90;;;;;;5086387;28;20072;-79
2021/05/02 06:14:14;;;;;;;25.73;17.67;;;8.20;99.90;;;;;;5077598;28;20048;-79
2021/05/02 06:16:41;;;;;;;22.83;15.95;;;8.30;99.90;;;;;;5079820;28;20045;-78
2021/05/02 06:19:07;;;;;;;18.75;14.52;;;8.20;99.90;;;;;;5089695;28;20115;-79
2021/05/02 06:21:34;;;;;;;21.27;16.13;;;8.40;99.90;;;;;;5090025;28;20044;-79
2021/05/02 06:24:02;;;;;;;19.40;15.18;;;8.40;99.90;;;;;;5104714;28;20047;-81
2021/05/02 06:26:30;;;;;;;17.80;14.25;;;8.50;99.90;;;;;;5072563;28;20044;-77
2021/05/02 06:28:57;;;;;;;16.80;13.18;;;8.50;99.90;;;;;;5090768;28;20044;-79
2021/05/02 06:31:23;;;;;;;18.90;14.05;;;8.60;99.90;;;;;;5088474;28;20079;-80
2021/05/02 06:33:50;;;;;;;19.10;13.90;;;8.60;99.90;;;;;;5086057;28;20076;-79
2021/05/02 06:36:17;;;;;;;19.02;13.88;;;8.70;99.90;;;;;;5097940;28;20048;-80
2021/05/02 06:38:44;;;;;;;20.20;14.82;;;8.70;99.90;;;;;;5094676;28;20079;-82
2021/05/02 06:41:11;;;;;;;19.73;15.93;;;8.70;99.90;;;;;;5076713;28;20124;-80
2021/05/02 06:43:38;;;;;;;19.42;14.25;;;8.80;99.90;;;;;;5095722;28;20097;-80
2021/05/02 06:46:05;;;;;;;19.67;14.60;;;8.90;99.90;;;;;;5091314;28;20082;-81
2021/05/02 06:48:31;;;;;;;17.02;13.27;;;9.00;99.90;;;;;;5083954;28;20080;-81
2021/05/02 06:50:58;;;;;;;19.77;15.00;;;9.00;99.90;;;;;;5114678;27;20151;-81
2021/05/02 06:53:25;;;;;;;18.30;14.52;;;9.00;99.80;;;;;;5093218;28;20494;-83
2021/05/02 06:55:52;;;;;;;18.48;13.85;;;9.10;99.80;;;;;;5090200;28;20087;-81
2021/05/02 06:58:20;;;;;;;18.90;13.25;;;9.10;99.40;;;;;;5087631;28;20123;-81
2021/05/02 07:00:48;;;;;;;19.30;14.68;;;9.20;99.40;;;;;;5103729;28;20450;-80
2021/05/02 07:03:16;;;;;;;19.23;15.05;;;9.20;99.20;;;;;;5083827;28;20041;-81
2021/05/02 07:05:43;;;;;;;17.83;13.77;;;9.30;99.00;;;;;;5092943;28;20052;-83
2021/05/02 07:08:09;;;;;;;16.00;13.48;;;9.30;99.00;;;;;;5095767;28;20123;-80
2021/05/02 07:10:36;;;;;;;17.30;13.88;;;9.40;99.00;;;;;;5076374;28;20075;-79
2021/05/02 07:13:03;;;;;;;17.60;12.68;;;9.40;98.90;;;;;;5074203;28;20052;-78
2021/05/02 07:15:30;;;;;;;16.15;13.88;;;9.50;98.90;;;;;;5073021;28;20135;-79
2021/05/02 07:17:57;;;;;;;16.65;12.88;;;9.50;98.90;;;;;;5087698;28;20123;-80
2021/05/02 07:20:24;;;;;;;18.52;13.43;;;9.50;99.20;;;;;;5080779;28;20553;-81
2021/05/02 07:22:53;;;;;;;17.50;13.35;;;9.60;98.60;;;;;;5071821;28;20044;-82
2021/05/02 07:25:22;;;;;;;18.63;14.43;;;9.60;98.40;;;;;;5081761;28;20045;-82
2021/05/02 07:27:49;;;;;;;20.25;15.35;;;9.70;98.20;;;;;;5091418;28;20044;-81
2021/05/02 07:30:18;;;;;;;18.92;13.82;;;9.70;98.20;;;;;;5089451;28;20059;-81
2021/05/02 07:32:46;;;;;;;20.00;14.85;;;9.60;97.90;;;;;;5097263;28;20158;-81
2021/05/02 07:35:12;;;;;;;18.00;14.60;;;9.60;98.00;;;;;;5097262;28;20485;-82
2021/05/02 07:37:40;;;;;;;18.70;14.48;;;9.50;98.10;;;;;;5096688;28;20073;-83
2021/05/02 07:40:09;;;;;;;16.45;12.38;;;9.40;98.50;;;;;;5097243;28;20411;-85
2021/05/02 07:42:36;;;;;;;19.95;14.85;;;9.50;98.90;;;;;;5096823;28;20076;-84
2021/05/02 07:45:04;;;;;;;16.92;12.80;;;9.50;98.60;;;;;;5097459;28;20577;-84
2021/05/02 07:47:31;;;;;;;17.50;13.25;;;9.60;98.90;;;;;;5092729;28;20080;-82
2021/05/02 07:49:58;;;;;;;16.60;12.93;;;9.60;98.80;;;;;;5094867;28;20087;-82
2021/05/02 07:52:26;;;;;;;18.48;14.27;;;9.70;98.70;;;;;;5096082;28;20075;-82
2021/05/02 07:54:52;;;;;;;17.63;14.32;;;9.70;98.60;;;;;;5098381;28;20128;-80
2021/05/02 07:57:19;;;;;;;15.85;12.60;;;9.80;98.50;;;;;;5100019;28;20048;-87
2021/05/02 07:59:46;;;;;;;18.60;14.48;;;9.80;98.30;;;;;;5093079;28;20127;-81
2021/05/02 08:02:12;;;;;;;18.45;14.32;;;9.90;98.20;;;;;;5088898;28;20123;-84
2021/05/02 08:04:40;;;;;;;15.82;11.98;;;9.80;97.90;;;;;;5087551;28;20048;-84
2021/05/02 08:07:08;;;;;;;15.63;12.18;;;9.80;98.10;;;;;;5076911;28;20072;-81
2021/05/02 08:09:36;;;;;;;15.48;11.30;;;9.80;97.80;;;;;;5090757;28;20497;-82
2021/05/02 08:12:07;;;;;;;16.10;12.48;;;9.80;97.90;;;;;;5096731;28;20079;-81
2021/05/02 08:14:34;;;;;;;15.40;11.70;;;9.90;97.50;;;;;;5096800;28;20055;-81
2021/05/02 08:17:01;;;;;;;18.85;13.60;;;10.00;97.50;;;;;;5081293;28;20041;-82
2021/05/02 08:19:28;;;;;;;16.73;13.52;;;10.00;97.20;;;;;;5089108;28;20409;-82
2021/05/02 08:21:55;;;;;;;16.85;12.25;;;10.00;97.10;;;;;;5094990;28;20094;-82
2021/05/02 08:24:22;;;;;;;14.95;12.55;;;9.90;97.20;;;;;;5080463;28;20131;-82
2021/05/02 08:26:49;;;;;;;18.27;14.48;;;9.90;97.40;;;;;;5096726;28;20086;-81
2021/05/02 08:29:16;;;;;;;17.65;12.38;;;9.90;97.20;;;;;;5092521;28;20127;-82
2021/05/02 08:31:43;;;;;;;17.20;13.85;;;9.90;97.00;;;;;;5096547;28;20040;-82
2021/05/02 08:34:09;;;;;;;14.80;11.68;;;9.90;97.30;;;;;;5096358;28;20123;-83
2021/05/02 08:36:36;;;;;;;17.20;12.73;;;9.90;97.20;;;;;;5091931;28;20087;-84
2021/05/02 08:39:04;;;;;;;16.80;12.48;;;9.90;97.10;;;;;;5087419;28;20482;-83
2021/05/02 08:41:32;;;;;;;13.73;10.18;;;9.90;96.90;;;;;;5096453;28;20575;-82
2021/05/02 08:44:00;;;;;;;13.10;10.05;;;9.80;97.20;;;;;;5093386;28;20121;-80
2021/05/02 08:46:28;;;;;;;14.57;11.35;;;10.00;97.40;;;;;;5092252;28;20044;-82
2021/05/02 08:48:54;;;;;;;14.75;10.77;;;10.10;96.90;;;;;;5092362;28;20058;-84
2021/05/02 08:51:21;;;;;;;14.93;11.05;;;10.10;96.90;;;;;;5105193;28;20048;-83
2021/05/02 08:53:48;;;;;;;16.33;11.68;;;10.20;96.60;;;;;;5080868;28;20132;-82
2021/05/02 08:56:15;;;;;;;15.45;10.73;;;10.10;96.40;;;;;;5077443;28;20466;-81
2021/05/02 08:58:42;;;;;;;12.43;9.55;;;10.30;96.40;;;;;;5092479;28;20119;-78
2021/05/02 09:01:09;;;;;;;16.17;11.45;;;10.30;96.60;;;;;;5094766;28;21452;-78
2021/05/02 09:03:45;;;;;;;16.10;12.20;;;10.40;96.20;;;;;;5089812;28;20139;-79
2021/05/02 09:06:18;;;;;;;16.08;12.07;;;10.50;95.80;;;;;;5086411;28;20051;-78
2021/05/02 09:08:46;;;;;;;15.45;11.80;;;10.60;95.60;;;;;;5095054;28;20106;-79
2021/05/02 09:11:14;;;;;;;14.80;12.30;;;10.60;95.50;;;;;;5101153;28;20451;-78
2021/05/02 09:13:56;;;;;;;13.50;11.20;;;10.60;95.50;;;;;;5078822;28;20048;-78
2021/05/02 09:16:23;;;;;;;14.02;10.85;;;10.70;95.80;;;;;;5075664;28;20413;-78
2021/05/02 09:18:50;;;;;;;14.75;10.82;;;10.70;95.80;;;;;;5091410;28;20079;-79
2021/05/02 09:21:29;;;;;;;13.85;10.07;;;10.80;95.80;;;;;;5095542;28;20063;-81
2021/05/02 09:23:58;;;;;;;15.30;12.05;;;11.00;95.70;;;;;;5095319;28;20143;-79
2021/05/02 09:26:27;;;;;;;14.57;11.40;;;11.10;94.80;;;;;;5094522;28;20044;-79
2021/05/02 09:28:56;;;;;;;16.77;11.55;;;11.10;94.60;;;;;;5094398;28;20059;-78
2021/05/02 09:31:25;;;;;;;14.40;10.43;;;11.20;94.30;;;;;;5094336;28;20502;-82
2021/05/02 09:33:53;;;;;;;15.02;11.40;;;11.20;94.50;;;;;;5087140;28;20037;-78
2021/05/02 09:36:22;;;;;;;13.85;10.73;;;11.40;94.50;;;;;;5077513;28;20071;-78
2021/05/02 09:38:49;;;;;;;13.52;10.85;;;11.40;94.10;;;;;;5079388;28;20044;-79
2021/05/02 09:41:17;;;;;;;12.60;10.05;;;11.50;93.60;;;;;;5076230;28;20068;-78
2021/05/02 09:43:47;;;;;;;14.38;10.80;;;11.50;93.70;;;;;;5075725;28;20117;-80
2021/05/02 09:46:29;;;;;;;12.35;9.75;;;11.50;93.20;;;;;;5089579;28;20055;-81
2021/05/02 09:49:16;;;;;;;13.45;10.18;;;11.50;93.30;;;;;;5083222;28;20055;-79
2021/05/02 09:51:48;;;;;;;13.40;10.40;;;11.60;93.30;;;;;;5077583;28;20036;-82
2021/05/02 09:54:17;;;;;;;13.57;10.23;;;11.60;93.20;;;;;;5077871;28;20429;-83
2021/05/02 09:56:48;;;;;;;12.07;10.13;;;11.60;93.10;;;;;;5082118;28;20052;-83
2021/05/02 09:59:28;;;;;;;16.55;12.77;;;11.50;93.10;;;;;;5093278;28;20044;-84
2021/05/02 10:02:23;;;;;;;16.30;11.23;;;11.40;93.00;;;;;;5094865;28;20047;-83
2021/05/02 10:04:52;;;;;;;18.75;12.98;;;11.30;93.50;;;;;;5095301;28;20143;-84
2021/05/02 10:07:21;;;;;;;13.13;10.35;;;11.30;93.80;;;;;;5095405;28;20040;-80
2021/05/02 10:09:49;;;;;;;13.07;10.02;;;11.30;93.50;;;;;;5093649;28;20452;-81
2021/05/02 10:12:16;;;;;;;13.27;9.70;;;11.30;93.50;;;;;;5094526;28;20115;-81
2021/05/02 10:14:46;;;;;;;12.52;9.32;;;11.30;93.40;;;;;;5093607;28;20141;-82
2021/05/02 10:17:13;;;;;;;12.77;9.35;;;11.30;93.50;;;;;;5078138;28;20498;-81
2021/05/02 10:19:42;;;;;;;12.73;10.07;;;11.40;93.50;;;;;;5093943;28;20067;-82
2021/05/02 10:22:10;;;;;;;14.93;10.15;;;11.50;93.30;;;;;;5094332;28;20036;-84
2021/05/02 10:24:37;;;;;;;13.50;10.50;;;11.50;93.30;;;;;;5093286;28;20063;-80
2021/05/02 10:27:08;;;;;;;14.98;10.57;;;11.60;93.40;;;;;;5091138;28;20545;-82
2021/05/02 10:29:39;;;;;;;12.05;8.93;;;11.60;93.40;;;;;;5094017;28;20109;-82
2021/05/02 10:32:09;;;;;;;11.65;8.65;;;11.60;93.30;;;;;;5092609;28;20546;-79
2021/05/02 10:34:39;;;;;;;13.32;10.07;;;11.60;93.40;;;;;;5088166;28;20127;-79
2021/05/02 10:37:37;;;;;;;11.85;9.02;;;11.60;92.90;;;;;;5092975;28;20493;-80
2021/05/02 10:40:23;;;;;;;12.98;10.07;;;11.70;92.90;;;;;;5093190;28;20046;-79
2021/05/02 10:42:54;;;;;;;13.73;10.40;;;11.70;92.50;;;;;;5093022;28;20082;-79
2021/05/02 10:45:48;;;;;;;12.82;9.70;;;11.70;92.10;;;;;;5092712;28;20123;-80
2021/05/02 10:48:50;;;;;;;13.13;9.15;;;11.80;91.90;;;;;;5093185;28;20096;-78
2021/05/02 10:51:32;;;;;;;15.80;10.52;;;11.90;91.90;;;;;;5091902;28;20047;-78
2021/05/02 10:54:13;;;;;;;12.77;9.63;;;12.00;91.30;;;;;;5093088;28;20039;-79
2021/05/02 10:56:50;;;;;;;13.02;11.43;;;12.10;90.70;;;;;;5089443;28;20060;-78
2021/05/02 10:59:19;;;;;;;13.95;10.75;;;12.20;86.70;;;;;;5077663;28;20074;-80
2021/05/02 11:01:46;;;;;;;12.77;9.68;;;12.20;84.60;;;;;;5093386;28;20075;-78
2021/05/02 11:04:13;;;;;;;11.55;9.32;;;12.30;85.30;;;;;;5093223;28;20072;-80
2021/05/02 11:07:02;;;;;;;14.25;12.30;;;12.40;87.00;;;;;;5093810;28;20545;-81
2021/05/02 11:09:54;;;;;;;12.10;9.80;;;12.40;84.20;;;;;;5093365;28;20123;-81
2021/05/02 11:12:31;;;;;;;12.90;11.23;;;12.40;86.00;;;;;;5093360;28;20048;-80
2021/05/02 11:14:59;;;;;;;15.10;10.55;;;12.40;82.10;;;;;;5092856;28;20095;-80
2021/05/02 11:17:31;;;;;;;13.75;11.55;;;12.40;81.50;;;;;;5092908;28;20075;-79
2021/05/02 11:19:59;;;;;;;11.38;8.65;;;12.40;78.30;;;;;;5092780;28;20040;-80
2021/05/02 11:22:28;;;;;;;14.50;10.18;;;12.40;79.80;;;;;;5093562;28;20063;-79
2021/05/02 11:25:03;;;;;;;12.75;9.82;;;12.50;77.50;;;;;;5093047;28;20133;-81
2021/05/02 11:30:48;;;;;;;11.02;8.35;;;12.50;72.80;;;;;;5090519;28;20048;-81
2021/05/02 11:33:24;;;;;;;12.88;9.18;;;12.50;72.20;;;;;;5091569;28;20416;-79
2021/05/02 11:35:55;;;;;;;12.02;9.82;;;12.60;70.40;;;;;;5092163;28;20054;-82
2021/05/02 11:38:39;;;;;;;11.48;9.68;;;12.60;67.60;;;;;;5093510;28;20058;-79
2021/05/02 11:41:09;;;;;;;13.23;10.60;;;12.50;67.80;;;;;;5090182;28;20040;-80
2021/05/02 11:43:38;;;;;;;11.90;9.88;;;12.40;69.70;;;;;;5093780;28;20097;-83
2021/05/02 11:46:16;;;;;;;12.73;10.23;;;12.40;66.40;;;;;;5092281;28;20040;-79
2021/05/02 11:48:43;;;;;;;11.68;9.30;;;12.40;67.20;;;;;;5093583;28;20040;-80
2021/05/02 11:51:24;;;;;;;12.30;10.15;;;12.40;69.50;;;;;;5092364;28;20069;-80
2021/05/02 11:53:53;;;;;;;11.32;9.43;;;12.60;69.90;;;;;;5090344;28;20482;-81
2021/05/02 11:56:24;;;;;;;11.65;8.07;;;12.70;68.40;;;;;;5092692;28;20097;-80
2021/05/02 11:58:53;;;;;;;11.60;8.57;;;12.90;68.90;;;;;;5092403;28;20051;-80
2021/05/02 12:01:23;;;;;;;13.27;9.48;;;13.10;70.50;;;;;;5093051;28;20215;-80
2021/05/02 12:03:51;;;;;;;12.20;10.00;;;13.30;70.70;;;;;;5093772;28;20124;-79
2021/05/02 12:06:30;;;;;;;9.45;7.18;;;13.40;64.40;;;;;;5093721;28;20158;-82
2021/05/02 12:08:59;;;;;;;16.63;11.07;;;13.40;63.90;;;;;;5092529;28;20044;-81
2021/05/02 12:11:29;;;;;;;12.55;9.05;;;13.40;63.60;;;;;;5098000;28;20052;-82
2021/05/02 12:13:57;;;;;;;10.30;7.85;;;13.30;65.90;;;;;;5097134;28;20055;-83
2021/05/02 12:16:27;;;;;;;10.75;8.93;;;13.20;66.70;;;;;;5095330;28;20079;-83
2021/05/02 12:19:00;;;;;;;10.93;8.80;;;13.10;66.30;;;;;;5096806;28;20080;-83
2021/05/02 12:21:33;;;;;;;8.98;7.00;;;12.80;69.20;;;;;;5095939;28;20048;-84
2021/05/02 12:24:20;;;;;;;10.27;7.82;;;12.50;70.30;;;;;;5095640;28;20040;-84
2021/05/02 12:26:50;;;;;;;9.85;7.20;;;12.20;75.10;;;;;;5087077;28;20068;-80
2021/05/02 12:29:20;;;;;;;8.07;6.78;;;12.00;78.90;;;;;;5096039;28;20052;-82
2021/05/02 12:31:52;;;;;;;10.25;8.55;;;11.80;82.30;;;;;;5095951;28;20135;-82
2021/05/02 12:34:22;;;;;;;11.45;9.82;;;11.70;86.60;;;;;;5096545;28;20083;-81
2021/05/02 12:36:49;;;;;;;10.35;8.18;;;11.50;91.10;;;;;;5096792;28;20518;-83
2021/05/02 12:39:16;;;;;;;11.57;8.15;;;11.00;88.80;;;;;;5096887;28;20068;-86
2021/05/02 12:41:43;;;;;;;9.43;7.40;;;10.70;91.00;;;;;;5095199;28;20044;-79
2021/05/02 12:44:25;;;;;;;6.95;5.10;;;10.40;92.90;;;;;;5082756;28;20052;-81
2021/05/02 12:46:54;;;;;;;7.32;5.43;;;10.20;93.00;;;;;;5095321;28;20055;-78
2021/05/02 12:49:24;;;;;;;6.30;4.82;;;10.10;93.60;;;;;;5093119;28;20047;-79
2021/05/02 12:51:54;;;;;;;7.95;6.00;;;10.00;94.10;;;;;;5082894;28;20048;-78